Time;durP1;ratioP1;P1;durP2;ratioP2;P2;SDS_P1;SDS_P2;PMS_P1;PMS_P2;Temp;Humidity;BMP_temperature;BMP_pressure;BME280_temperature;BME280_humidity;BME280_pressure;Samples;Min_cycle;Max_cycle;Signal;HPM_P1;HPM_P2
2023/10/02 00:01:47;;;;;;;21.55;9.80;;;18.00;99.90;;;;;;5093744;28;20051;-87
2023/10/02 00:04:16;;;;;;;24.70;16.98;;;17.90;99.90;;;;;;5077372;28;20040;-88
2023/10/02 00:06:43;;;;;;;25.02;17.27;;;17.90;99.90;;;;;;5077360;28;20462;-88
2023/10/02 00:09:09;;;;;;;24.42;17.50;;;17.90;99.90;;;;;;5093962;28;20048;-87
2023/10/02 00:11:39;;;;;;;26.85;12.35;;;17.90;99.90;;;;;;5077287;28;20124;-88
2023/10/02 00:14:19;;;;;;;23.20;15.88;;;17.90;99.90;;;;;;5077517;28;20401;-88
2023/10/02 00:17:04;;;;;;;23.80;16.67;;;17.90;99.90;;;;;;5077056;28;20050;-88
2023/10/02 00:19:37;;;;;;;25.95;16.30;;;17.90;99.90;;;;;;5102754;28;20050;-88
2023/10/02 00:22:34;;;;;;;;;;;17.90;99.90;;;;;;5087328;28;20088;-88
2023/10/02 00:24:55;;;;;;;23.60;16.47;;;17.90;99.90;;;;;;5094678;28;19920;-88
2023/10/02 00:27:21;;;;;;;23.17;10.75;;;17.90;99.90;;;;;;5079198;28;20273;-88
2023/10/02 00:29:53;;;;;;;24.85;15.95;;;17.80;99.90;;;;;;5088093;28;20043;-88
2023/10/02 00:32:19;;;;;;;24.95;17.08;;;17.90;99.90;;;;;;5102175;28;20081;-84
2023/10/02 00:34:50;;;;;;;23.50;16.15;;;17.90;99.90;;;;;;5085528;28;20032;-88
2023/10/02 00:37:16;;;;;;;19.92;8.85;;;17.90;99.90;;;;;;5094801;28;20043;-88
2023/10/02 00:39:47;;;;;;;23.13;15.88;;;17.80;99.90;;;;;;5078361;28;20391;-87
2023/10/02 00:42:24;;;;;;;23.23;15.48;;;17.90;99.90;;;;;;5077569;28;20490;-87
2023/10/02 00:44:51;;;;;;;24.63;16.38;;;17.90;99.90;;;;;;5094096;28;20044;-88
2023/10/02 00:47:35;;;;;;;25.27;16.40;;;17.90;99.90;;;;;;5085226;28;20061;-88
2023/10/02 00:50:08;;;;;;;24.42;16.65;;;18.00;99.90;;;;;;5093503;28;20529;-88
2023/10/02 00:52:36;;;;;;;25.88;16.83;;;18.00;99.90;;;;;;5075937;28;20103;-88
2023/10/02 00:55:06;;;;;;;22.88;15.45;;;18.00;99.90;;;;;;5076379;28;20053;-88
2023/10/02 00:57:35;;;;;;;23.15;15.65;;;18.00;99.90;;;;;;5075862;28;20512;-88
2023/10/02 01:03:14;;;;;;;;;;;18.00;99.90;;;;;;5069290;28;20697;-89
2023/10/02 01:05:50;;;;;;;23.80;15.85;;;18.00;99.90;;;;;;5050126;28;19929;-88
2023/10/02 01:08:24;;;;;;;23.45;16.10;;;18.00;99.90;;;;;;5051837;28;20127;-88
2023/10/02 01:10:59;;;;;;;21.65;16.30;;;18.00;99.90;;;;;;5051728;28;20044;-88
2023/10/02 01:13:28;;;;;;;22.10;15.95;;;18.10;99.90;;;;;;5051575;28;20048;-88
2023/10/02 01:15:59;;;;;;;19.58;10.27;;;18.10;99.90;;;;;;5050717;28;20689;-88
2023/10/02 01:18:29;;;;;;;26.40;16.95;;;18.00;99.90;;;;;;5051125;28;20158;-88
2023/10/02 01:20:59;;;;;;;24.77;17.35;;;18.00;99.90;;;;;;5035032;28;20052;-88
2023/10/02 01:23:31;;;;;;;21.92;16.30;;;18.00;99.90;;;;;;5035124;28;20036;-88
2023/10/02 01:26:00;;;;;;;24.25;16.17;;;18.00;99.90;;;;;;5055630;28;20286;-89
2023/10/02 01:28:49;;;;;;;23.23;11.45;;;18.00;99.90;;;;;;5068834;28;20041;-88
2023/10/02 01:31:31;;;;;;;27.33;17.75;;;18.00;99.90;;;;;;5029543;28;20499;-88
2023/10/02 01:33:59;;;;;;;25.08;17.13;;;17.90;99.90;;;;;;5051201;28;20051;-89
2023/10/02 01:36:28;;;;;;;26.92;16.95;;;18.00;99.90;;;;;;5051471;28;20048;-88
2023/10/02 01:38:59;;;;;;;24.73;16.25;;;17.90;99.90;;;;;;5045117;28;20043;-88
2023/10/02 01:41:26;;;;;;;19.75;11.23;;;17.90;99.90;;;;;;5076504;28;20517;-88
2023/10/02 01:43:55;;;;;;;22.63;16.13;;;17.80;99.90;;;;;;5075993;28;20063;-88
2023/10/02 01:46:22;;;;;;;18.63;10.60;;;17.80;99.90;;;;;;5080366;28;20080;-88
2023/10/02 01:48:48;;;;;;;22.92;16.15;;;17.80;99.90;;;;;;5079658;28;20070;-88
2023/10/02 01:51:26;;;;;;;25.30;17.67;;;17.70;99.90;;;;;;5080030;28;20070;-88
2023/10/02 01:54:03;;;;;;;25.13;17.05;;;17.80;99.90;;;;;;5096541;28;20043;-88
2023/10/02 01:56:31;;;;;;;25.35;17.45;;;17.80;99.90;;;;;;5080148;28;20043;-88
2023/10/02 01:59:09;;;;;;;26.30;17.15;;;17.70;99.90;;;;;;5096437;28;20040;-88
2023/10/02 02:01:52;;;;;;;19.15;10.57;;;17.70;99.90;;;;;;5096919;28;20039;-88
2023/10/02 02:04:24;;;;;;;23.13;17.05;;;17.60;99.90;;;;;;5097044;28;20039;-89
2023/10/02 02:06:52;;;;;;;21.63;10.68;;;17.70;99.90;;;;;;5079786;28;21337;-89
2023/10/02 02:09:23;;;;;;;24.25;13.50;;;17.60;99.90;;;;;;5097029;28;20036;-89
2023/10/02 02:12:05;;;;;;;25.05;17.83;;;17.60;99.90;;;;;;5079380;28;20031;-89
2023/10/02 02:14:40;;;;;;;24.03;16.93;;;17.60;99.90;;;;;;5079538;28;20035;-89
2023/10/02 02:17:12;;;;;;;21.98;11.75;;;17.60;99.90;;;;;;5079333;28;20521;-89
2023/10/02 02:19:47;;;;;;;25.70;17.58;;;17.60;99.90;;;;;;5078939;28;20039;-89
2023/10/02 02:22:18;;;;;;;25.35;17.88;;;17.60;99.90;;;;;;5096367;28;20039;-89
2023/10/02 02:24:47;;;;;;;19.60;10.35;;;17.60;99.90;;;;;;5095957;28;20176;-89
2023/10/02 02:27:14;;;;;;;25.67;18.00;;;17.50;99.90;;;;;;5096158;28;20067;-89
2023/10/02 02:29:40;;;;;;;22.98;17.17;;;17.50;99.90;;;;;;5095844;28;20044;-89
2023/10/02 02:32:09;;;;;;;24.40;18.15;;;17.60;99.90;;;;;;5079365;28;20036;-89
2023/10/02 02:34:36;;;;;;;23.60;17.35;;;17.60;99.90;;;;;;5079006;28;20039;-89
2023/10/02 02:37:03;;;;;;;25.45;18.42;;;17.60;99.90;;;;;;5096164;28;20079;-89
2023/10/02 02:39:30;;;;;;;20.10;9.85;;;17.60;99.90;;;;;;5078531;28;20035;-89
2023/10/02 02:44:55;;;;;;;23.70;17.42;;;17.60;99.90;;;;;;5067785;28;20068;-89
2023/10/02 02:47:24;;;;;;;22.02;10.68;;;17.60;99.90;;;;;;5032670;28;20047;-89
2023/10/02 02:49:51;;;;;;;24.73;18.02;;;17.50;99.90;;;;;;5053803;28;20101;-89
2023/10/02 02:52:32;;;;;;;20.88;9.82;;;17.50;99.90;;;;;;5038024;28;20044;-89
2023/10/02 02:54:59;;;;;;;24.40;17.52;;;17.50;99.90;;;;;;5054027;28;20052;-89
2023/10/02 02:57:29;;;;;;;24.50;18.20;;;17.50;99.90;;;;;;5054160;28;20044;-89
2023/10/02 03:02:46;;;;;;;23.42;17.25;;;17.60;99.90;;;;;;5054383;28;20037;-89
2023/10/02 03:05:12;;;;;;;23.20;11.35;;;17.60;99.90;;;;;;5054791;28;20045;-89
2023/10/02 03:07:39;;;;;;;24.67;17.70;;;17.50;99.90;;;;;;5042330;28;20109;-89
2023/10/02 03:10:10;;;;;;;24.40;17.27;;;17.50;99.90;;;;;;5039066;28;20033;-89
2023/10/02 03:12:44;;;;;;;23.50;17.60;;;17.50;99.90;;;;;;5037303;28;20132;-89
2023/10/02 03:15:13;;;;;;;22.02;16.50;;;17.50;99.90;;;;;;5037010;28;20055;-89
2023/10/02 03:17:41;;;;;;;22.80;16.63;;;17.50;99.90;;;;;;5036928;28;20043;-89
2023/10/02 03:20:24;;;;;;;24.23;16.65;;;17.50;99.90;;;;;;5050948;28;20051;-89
2023/10/02 03:22:55;;;;;;;25.70;17.33;;;17.50;99.90;;;;;;5078227;28;20043;-89
2023/10/02 03:25:28;;;;;;;25.23;17.58;;;17.50;99.90;;;;;;5078494;28;20051;-89
2023/10/02 03:27:57;;;;;;;23.95;17.15;;;17.50;99.90;;;;;;5077966;28;20507;-89
2023/10/02 03:30:35;;;;;;;27.52;18.58;;;17.50;99.90;;;;;;5094821;28;20035;-89
2023/10/02 03:33:17;;;;;;;23.35;18.10;;;17.50;99.90;;;;;;5078118;28;20054;-89
2023/10/02 03:35:56;;;;;;;25.40;17.97;;;17.40;99.90;;;;;;5094662;28;20051;-89
2023/10/02 03:38:23;;;;;;;25.92;18.52;;;17.40;99.90;;;;;;5094628;28;20051;-89
2023/10/02 03:40:57;;;;;;;25.40;17.27;;;17.40;99.90;;;;;;5094847;28;20043;-89
2023/10/02 03:43:35;;;;;;;24.45;18.38;;;17.40;99.90;;;;;;5078182;28;20039;-89
2023/10/02 03:46:02;;;;;;;19.60;9.23;;;17.40;99.90;;;;;;5078126;28;20530;-90
2023/10/02 03:48:28;;;;;;;26.95;17.77;;;17.30;99.90;;;;;;5094134;28;20035;-89
2023/10/02 03:50:56;;;;;;;24.80;17.40;;;17.20;99.90;;;;;;5077976;28;20084;-89
2023/10/02 03:53:28;;;;;;;21.80;10.13;;;17.20;99.90;;;;;;5094860;28;20035;-89
2023/10/02 03:58:51;;;;;;;26.48;17.85;;;17.20;99.90;;;;;;5094008;28;20769;-89
2023/10/02 04:01:30;;;;;;;26.08;18.20;;;17.20;99.90;;;;;;5076943;28;20039;-89
2023/10/02 04:04:10;;;;;;;20.92;9.75;;;17.20;99.90;;;;;;5077202;28;20044;-90
2023/10/02 04:06:35;;;;;;;22.38;11.85;;;17.10;99.90;;;;;;5076777;28;20039;-90
2023/10/02 04:09:21;;;;;;;26.98;17.70;;;17.00;99.90;;;;;;5093769;28;20457;-89
2023/10/02 04:11:50;;;;;;;20.08;9.05;;;17.10;99.90;;;;;;5112512;28;20035;-89
2023/10/02 04:14:17;;;;;;;27.20;18.42;;;17.00;99.90;;;;;;5077296;28;20451;-89
2023/10/02 04:16:59;;;;;;;24.60;17.23;;;17.00;99.90;;;;;;5093766;28;20071;-89
2023/10/02 04:19:26;;;;;;;26.27;18.60;;;17.00;99.90;;;;;;5076586;28;20146;-89
2023/10/02 04:21:53;;;;;;;20.98;9.55;;;17.00;99.90;;;;;;5077212;28;20487;-89
2023/10/02 04:24:23;;;;;;;26.77;18.13;;;16.90;99.90;;;;;;5077022;28;20035;-88
2023/10/02 04:27:08;;;;;;;25.15;17.98;;;17.00;99.90;;;;;;5094389;28;20140;-89
2023/10/02 04:29:37;;;;;;;24.27;17.70;;;17.00;99.90;;;;;;5076174;28;20036;-89
2023/10/02 04:32:14;;;;;;;23.15;10.85;;;17.00;99.90;;;;;;5093639;28;20088;-89
2023/10/02 04:34:50;;;;;;;20.95;10.18;;;16.90;99.90;;;;;;5076121;28;20035;-89
2023/10/02 04:37:19;;;;;;;26.80;18.35;;;16.90;99.90;;;;;;5076217;28;20043;-88
2023/10/02 04:40:13;;;;;;;27.52;18.17;;;16.90;99.90;;;;;;5076424;28;20035;-89
2023/10/02 04:42:58;;;;;;;22.80;17.40;;;17.00;99.90;;;;;;5094136;28;20139;-90
2023/10/02 04:45:34;;;;;;;24.20;17.27;;;16.90;99.90;;;;;;5093987;28;20099;-89
2023/10/02 04:48:00;;;;;;;25.88;18.05;;;16.90;99.90;;;;;;5093688;28;20434;-88
2023/10/02 04:53:00;;;;;;;25.40;18.67;;;16.90;99.90;;;;;;5093483;28;20044;-89
2023/10/02 04:55:42;;;;;;;21.63;10.77;;;16.90;99.90;;;;;;5093628;28;20043;-90
2023/10/02 04:58:18;;;;;;;24.30;18.67;;;16.90;99.90;;;;;;5093440;28;20048;-90
2023/10/02 05:03:49;;;;;;;26.95;17.63;;;16.90;99.90;;;;;;5093744;28;20040;-89
2023/10/02 05:06:39;;;;;;;24.48;17.75;;;16.90;99.90;;;;;;5093490;28;20040;-90
2023/10/02 05:11:46;;;;;;;26.30;17.80;;;16.80;99.90;;;;;;5093582;28;20050;-89
2023/10/02 05:14:14;;;;;;;23.90;17.25;;;16.90;99.90;;;;;;5093381;28;20048;-89
2023/10/02 05:16:42;;;;;;;20.20;8.90;;;16.90;99.90;;;;;;5076228;28;20044;-89
2023/10/02 05:19:09;;;;;;;24.58;17.83;;;16.80;99.90;;;;;;5075672;28;20064;-89
2023/10/02 05:21:38;;;;;;;27.05;19.25;;;16.80;99.90;;;;;;5093016;28;20093;-89
2023/10/02 05:24:06;;;;;;;20.63;9.02;;;16.80;99.90;;;;;;5093091;28;20040;-89
2023/10/02 05:26:44;;;;;;;24.73;18.48;;;16.70;99.90;;;;;;5075850;28;20043;-89
2023/10/02 05:29:41;;;;;;;26.20;17.77;;;16.80;99.90;;;;;;5076454;28;20036;-89
2023/10/02 05:32:27;;;;;;;27.38;18.98;;;16.80;99.90;;;;;;5069720;28;20031;-89
2023/10/02 05:35:03;;;;;;;29.20;18.55;;;16.80;99.90;;;;;;5101656;28;20031;-87
2023/10/02 05:37:31;;;;;;;25.25;18.50;;;16.80;99.90;;;;;;5105273;28;20043;-89
2023/10/02 05:40:32;;;;;;;20.50;9.68;;;16.80;99.90;;;;;;5102398;28;20031;-87
2023/10/02 05:48:38;;;;;;;23.27;11.43;;;16.70;99.90;;;;;;5090809;28;20048;-88
2023/10/02 05:51:09;;;;;;;27.92;18.55;;;16.60;99.90;;;;;;5084746;28;20054;-90
2023/10/02 05:53:37;;;;;;;28.20;18.83;;;16.60;99.90;;;;;;5101664;28;20039;-90
2023/10/02 05:56:12;;;;;;;26.00;18.83;;;16.70;99.90;;;;;;5101570;28;20047;-90
2023/10/02 05:58:41;;;;;;;27.48;18.40;;;16.70;99.90;;;;;;5075872;28;20040;-90
2023/10/02 06:01:18;;;;;;;24.67;18.38;;;16.70;99.90;;;;;;5092862;28;20048;-90
2023/10/02 06:04:00;;;;;;;28.05;18.42;;;16.70;99.90;;;;;;5093023;28;20036;-89
2023/10/02 06:06:36;;;;;;;23.57;17.60;;;16.60;99.90;;;;;;5093195;28;20050;-89
2023/10/02 06:09:12;;;;;;;24.88;16.83;;;16.60;99.90;;;;;;5068706;28;20061;-89
2023/10/02 06:11:59;;;;;;;26.67;17.75;;;16.60;99.90;;;;;;5076045;28;20032;-90
2023/10/02 06:14:25;;;;;;;25.48;18.02;;;16.70;99.90;;;;;;5092721;28;20051;-89
2023/10/02 06:16:52;;;;;;;22.63;9.85;;;16.70;99.90;;;;;;5075973;28;20418;-89
2023/10/02 06:19:18;;;;;;;25.85;17.55;;;16.60;99.90;;;;;;5075591;28;20494;-89
2023/10/02 06:21:46;;;;;;;24.20;17.00;;;16.60;99.90;;;;;;5100645;28;20122;-90
2023/10/02 06:24:19;;;;;;;26.60;18.10;;;16.60;99.90;;;;;;5084390;28;20040;-90
2023/10/02 06:26:58;;;;;;;24.63;17.65;;;16.70;99.90;;;;;;5074909;28;20043;-90
2023/10/02 06:29:24;;;;;;;19.83;10.02;;;16.70;99.90;;;;;;5096881;28;20406;-90
2023/10/02 06:32:05;;;;;;;23.55;10.30;;;16.70;99.90;;;;;;5079783;28;20038;-90
2023/10/02 06:34:39;;;;;;;29.40;19.10;;;16.70;99.90;;;;;;5083250;28;20033;-90
2023/10/02 06:37:12;;;;;;;19.85;10.00;;;16.70;99.90;;;;;;5087639;28;20399;-88
2023/10/02 06:39:46;;;;;;;23.83;17.85;;;16.70;99.90;;;;;;5096130;28;20494;-90
2023/10/02 06:42:17;;;;;;;24.23;17.80;;;16.80;99.90;;;;;;5098508;28;20122;-89
2023/10/02 06:44:52;;;;;;;27.08;18.25;;;16.80;99.90;;;;;;5104768;28;20081;-90
2023/10/02 06:47:23;;;;;;;21.55;10.63;;;16.90;99.90;;;;;;5087695;28;20036;-91
2023/10/02 06:49:53;;;;;;;26.45;17.65;;;16.90;99.90;;;;;;5095725;28;20379;-90
2023/10/02 06:52:20;;;;;;;25.63;17.40;;;16.90;99.90;;;;;;5099483;28;20046;-90
2023/10/02 06:54:49;;;;;;;28.40;17.30;;;17.00;99.90;;;;;;5104288;28;20047;-90
2023/10/02 06:57:17;;;;;;;24.58;17.45;;;17.10;99.90;;;;;;5084501;28;20555;-89
2023/10/02 06:59:51;;;;;;;24.13;16.77;;;17.10;99.90;;;;;;5087040;28;20043;-90
2023/10/02 07:02:27;;;;;;;18.02;10.20;;;17.20;99.90;;;;;;5101092;28;20035;-90
2023/10/02 07:04:55;;;;;;;20.35;10.52;;;17.10;99.90;;;;;;5097850;27;20171;-90
2023/10/02 07:07:32;;;;;;;27.92;18.58;;;17.10;99.90;;;;;;5097004;28;20131;-90
2023/10/02 07:10:08;;;;;;;27.58;18.08;;;17.20;99.90;;;;;;5095971;28;20104;-90
2023/10/02 07:12:39;;;;;;;24.45;17.35;;;17.20;99.90;;;;;;5087453;28;20047;-90
2023/10/02 07:15:22;;;;;;;20.77;9.50;;;17.30;99.90;;;;;;5096817;28;20038;-89
2023/10/02 07:17:48;;;;;;;26.23;18.02;;;17.30;99.90;;;;;;5080945;27;20031;-90
2023/10/02 07:20:20;;;;;;;26.83;18.23;;;17.20;99.90;;;;;;5077394;28;20035;-89
2023/10/02 07:22:51;;;;;;;24.88;17.98;;;17.30;99.90;;;;;;5093089;28;20044;-89
2023/10/02 07:25:24;;;;;;;21.75;9.93;;;17.40;99.90;;;;;;5095089;28;20122;-89
2023/10/02 07:27:50;;;;;;;25.65;18.67;;;17.30;99.90;;;;;;5095466;28;20110;-89
2023/10/02 07:30:26;;;;;;;25.23;18.00;;;17.30;99.90;;;;;;5103126;28;20504;-90
2023/10/02 07:32:53;;;;;;;28.30;18.48;;;17.30;99.90;;;;;;5078552;28;20050;-89
2023/10/02 07:35:22;;;;;;;25.45;17.88;;;17.30;99.90;;;;;;5078422;28;20054;-89
2023/10/02 07:37:58;;;;;;;22.35;10.43;;;17.30;99.90;;;;;;5102905;28;20051;-89
2023/10/02 07:40:49;;;;;;;28.20;18.65;;;17.30;99.90;;;;;;5077165;28;20050;-89
2023/10/02 07:43:18;;;;;;;22.85;10.45;;;17.40;99.90;;;;;;5097679;28;20061;-89
2023/10/02 07:46:01;;;;;;;27.65;18.83;;;17.30;99.90;;;;;;5096443;28;20096;-89
2023/10/02 07:48:39;;;;;;;21.60;10.52;;;17.40;99.90;;;;;;5077725;28;20036;-89
2023/10/02 07:51:09;;;;;;;21.67;11.02;;;17.40;99.90;;;;;;5095027;28;20061;-89
2023/10/02 07:53:40;;;;;;;25.88;18.58;;;17.40;99.90;;;;;;5086209;28;20036;-90
2023/10/02 07:56:07;;;;;;;27.20;18.45;;;17.50;99.90;;;;;;5096083;28;20079;-89
2023/10/02 07:58:35;;;;;;;22.58;12.30;;;17.50;99.90;;;;;;5097304;28;20039;-89
2023/10/02 08:01:06;;;;;;;26.23;18.92;;;17.50;99.90;;;;;;5078379;28;20065;-89
2023/10/02 08:03:36;;;;;;;25.35;18.77;;;17.50;99.90;;;;;;5086088;28;20417;-89
2023/10/02 08:06:21;;;;;;;25.23;13.82;;;17.60;99.90;;;;;;5077706;28;20044;-89
2023/10/02 08:11:41;;;;;;;28.58;19.65;;;17.60;99.90;;;;;;5096658;28;20127;-90
2023/10/02 08:14:34;;;;;;;26.85;19.55;;;17.70;99.90;;;;;;5086380;28;20122;-89
2023/10/02 08:17:00;;;;;;;29.58;20.15;;;17.80;99.90;;;;;;5094740;28;20039;-89
2023/10/02 08:19:27;;;;;;;26.73;19.48;;;17.80;99.90;;;;;;5098973;28;20054;-90
2023/10/02 08:21:53;;;;;;;28.25;19.55;;;17.80;99.90;;;;;;5103333;28;20038;-89
2023/10/02 08:24:19;;;;;;;23.40;11.95;;;17.90;99.90;;;;;;5103307;28;20031;-89
2023/10/02 08:26:45;;;;;;;29.83;20.15;;;17.80;99.90;;;;;;5106265;28;20056;-90
2023/10/02 08:29:15;;;;;;;26.50;19.38;;;17.90;99.90;;;;;;5096390;28;20570;-89
2023/10/02 08:31:43;;;;;;;28.33;20.33;;;18.00;99.90;;;;;;5096537;28;20043;-90
2023/10/02 08:34:14;;;;;;;29.25;19.63;;;18.00;99.90;;;;;;5095004;28;20391;-90
2023/10/02 08:36:40;;;;;;;28.45;19.77;;;18.10;99.90;;;;;;5086172;28;20032;-90
2023/10/02 08:39:08;;;;;;;29.50;20.55;;;18.20;99.90;;;;;;5084282;28;20039;-90
2023/10/02 08:41:43;;;;;;;29.48;20.17;;;18.30;99.90;;;;;;5084754;28;20085;-90
2023/10/02 08:44:10;;;;;;;29.45;19.70;;;18.30;99.90;;;;;;5076988;28;20097;-89
2023/10/02 08:46:36;;;;;;;23.30;11.88;;;18.40;99.90;;;;;;5074760;28;20120;-90
2023/10/02 08:49:03;;;;;;;28.30;20.58;;;18.40;99.90;;;;;;5101851;27;20462;-89
2023/10/02 08:51:38;;;;;;;23.80;11.23;;;18.40;99.90;;;;;;5087735;28;20075;-89
2023/10/02 08:54:05;;;;;;;29.58;21.13;;;18.50;99.90;;;;;;5099373;27;20035;-89
2023/10/02 08:56:44;;;;;;;33.05;21.85;;;18.50;99.90;;;;;;5099886;27;20514;-89
2023/10/02 08:59:18;;;;;;;23.17;13.38;;;18.70;99.90;;;;;;5101906;27;20039;-89
2023/10/02 09:01:48;;;;;;;27.30;19.80;;;18.70;99.90;;;;;;5082288;28;20327;-90
2023/10/02 09:06:58;;;;;;;28.92;19.85;;;18.80;99.90;;;;;;5093868;28;20060;-90
2023/10/02 09:09:27;;;;;;;29.58;20.50;;;18.90;99.90;;;;;;5102148;28;20047;-90
2023/10/02 09:11:58;;;;;;;30.40;20.77;;;19.00;99.90;;;;;;5084843;28;20057;-89
2023/10/02 09:17:13;;;;;;;;;;;19.10;99.90;;;;;;5093947;28;20455;-89
2023/10/02 09:20:07;;;;;;;23.90;13.60;;;19.10;99.90;;;;;;5101697;28;20331;-90
2023/10/02 09:22:41;;;;;;;27.65;20.15;;;19.20;99.90;;;;;;5076690;28;20043;-89
2023/10/02 09:27:56;;;;;;;31.48;22.67;;;19.30;99.90;;;;;;5101977;28;20047;-89
2023/10/02 09:30:36;;;;;;;29.10;20.75;;;19.40;99.90;;;;;;5076746;28;20414;-90
2023/10/02 09:33:14;;;;;;;30.55;22.10;;;19.40;99.90;;;;;;5102007;28;20036;-90
2023/10/02 09:35:43;;;;;;;31.17;22.88;;;19.50;99.90;;;;;;5084641;28;20626;-89
2023/10/02 09:38:11;;;;;;;30.25;21.88;;;19.60;99.90;;;;;;5100758;28;20543;-89
2023/10/02 09:43:30;;;;;;;28.60;21.58;;;19.70;99.90;;;;;;5096765;28;20039;-89
2023/10/02 09:46:06;;;;;;;32.23;23.30;;;19.80;99.90;;;;;;5076287;28;20471;-90
2023/10/02 09:48:53;;;;;;;32.35;22.23;;;19.80;99.90;;;;;;5075185;28;20028;-89
2023/10/02 09:51:25;;;;;;;31.05;22.70;;;19.90;99.90;;;;;;5075646;28;20559;-90
2023/10/02 09:54:08;;;;;;;;;;;20.00;99.90;;;;;;5076418;28;20052;-90
2023/10/02 09:57:06;;;;;;;35.67;24.50;;;20.00;99.90;;;;;;5079193;28;19919;-90
2023/10/02 09:59:37;;;;;;;33.40;24.42;;;20.10;99.90;;;;;;5078939;28;20062;-90
2023/10/02 10:13:46;;;;;;;36.60;27.15;;;20.20;99.90;;;;;;5104922;28;20040;-90
2023/10/02 10:16:20;;;;;;;37.10;26.92;;;20.30;99.90;;;;;;5079942;28;20589;-90
2023/10/02 10:22:04;;;;;;;32.10;24.23;;;20.30;99.90;;;;;;5096543;28;20043;-90
2023/10/02 10:24:58;;;;;;;34.58;25.70;;;20.30;99.90;;;;;;5104706;28;20398;-90
2023/10/02 10:27:39;;;;;;;32.60;25.63;;;20.40;99.90;;;;;;5083886;28;20047;-90
2023/10/02 10:30:33;;;;;;;34.95;26.05;;;20.50;99.90;;;;;;5089153;28;20104;-90
2023/10/02 10:35:34;;;;;;;34.20;24.67;;;20.70;99.90;;;;;;5114524;28;20040;-90
2023/10/02 10:38:36;;;;;;;32.50;24.58;;;20.70;99.90;;;;;;5095946;28;20546;-90
2023/10/02 10:41:06;;;;;;;35.38;23.75;;;20.80;99.90;;;;;;5073427;28;20058;-90
2023/10/02 10:46:17;;;;;;;31.98;24.35;;;20.90;99.90;;;;;;5104535;27;20051;-90
2023/10/02 10:48:48;;;;;;;32.83;23.40;;;21.00;99.90;;;;;;5087308;27;20031;-91
2023/10/02 10:51:20;;;;;;;31.80;23.63;;;21.00;99.90;;;;;;5091686;27;20037;-90
2023/10/02 10:53:54;;;;;;;29.90;22.10;;;21.00;99.90;;;;;;5105343;27;20046;-90
2023/10/02 10:56:22;;;;;;;35.22;24.35;;;21.00;99.90;;;;;;5105288;28;20039;-90
2023/10/02 10:58:53;;;;;;;32.78;23.75;;;21.00;99.90;;;;;;5116936;27;20039;-90
2023/10/02 11:01:22;;;;;;;29.42;21.90;;;21.10;99.90;;;;;;5082521;28;20054;-91
2023/10/02 11:03:58;;;;;;;32.60;23.52;;;21.10;99.90;;;;;;5087504;28;20035;-90
2023/10/02 11:06:24;;;;;;;36.83;24.35;;;21.20;99.90;;;;;;5104999;27;20046;-90
2023/10/02 11:09:13;;;;;;;32.28;24.05;;;21.20;99.90;;;;;;5106592;27;20035;-90
2023/10/02 11:11:49;;;;;;;33.80;23.52;;;21.20;99.90;;;;;;5090622;27;20662;-90
2023/10/02 11:14:34;;;;;;;29.77;21.77;;;21.30;99.90;;;;;;5106326;27;20032;-90
2023/10/02 11:17:04;;;;;;;31.75;21.90;;;21.40;99.90;;;;;;5091362;27;20035;-91
2023/10/02 11:22:01;;;;;;;29.65;21.95;;;21.60;99.90;;;;;;5108232;27;20047;-90
2023/10/02 11:24:27;;;;;;;34.67;22.77;;;21.80;99.90;;;;;;5107357;27;20065;-90
2023/10/02 11:27:04;;;;;;;29.05;21.02;;;21.80;99.90;;;;;;5109102;27;20028;-91
2023/10/02 11:29:40;;;;;;;25.38;17.35;;;21.80;99.90;;;;;;5104227;27;20032;-91
2023/10/02 11:32:19;;;;;;;26.70;18.05;;;21.80;99.90;;;;;;5107411;27;20034;-91
2023/10/02 11:34:46;;;;;;;25.85;18.15;;;21.70;99.90;;;;;;5105425;27;20044;-91
2023/10/02 11:37:16;;;;;;;26.15;18.30;;;21.70;99.90;;;;;;5089440;27;20127;-90
2023/10/02 11:39:44;;;;;;;26.42;19.33;;;21.70;99.90;;;;;;5100875;27;20078;-90
2023/10/02 11:42:10;;;;;;;26.23;18.88;;;21.70;99.90;;;;;;5088576;27;20035;-90
2023/10/02 11:44:39;;;;;;;26.45;18.90;;;21.70;99.90;;;;;;5107582;27;20118;-90
2023/10/02 11:47:09;;;;;;;31.50;20.17;;;21.70;99.90;;;;;;5090279;27;20053;-90
2023/10/02 11:49:38;;;;;;;30.30;19.33;;;21.80;99.90;;;;;;5090797;27;20069;-90
2023/10/02 11:52:04;;;;;;;25.65;17.48;;;21.90;99.90;;;;;;5107115;27;20027;-91
2023/10/02 11:54:39;;;;;;;26.52;17.42;;;22.00;99.90;;;;;;5090582;27;20078;-91
2023/10/02 11:57:09;;;;;;;30.50;18.02;;;22.10;99.90;;;;;;5098403;28;20126;-91
2023/10/02 11:59:37;;;;;;;26.20;18.27;;;22.20;99.90;;;;;;5097052;28;20046;-92
2023/10/02 12:02:04;;;;;;;25.08;17.88;;;22.20;99.90;;;;;;5094339;28;20096;-90
2023/10/02 12:04:30;;;;;;;25.38;19.10;;;22.20;99.90;;;;;;5085993;28;20031;-91
2023/10/02 12:06:57;;;;;;;24.30;18.05;;;22.20;99.90;;;;;;5077943;28;20406;-91
2023/10/02 12:09:23;;;;;;;24.90;17.27;;;22.20;99.90;;;;;;5094377;28;20043;-91
2023/10/02 12:11:48;;;;;;;24.67;17.63;;;22.30;99.90;;;;;;5077528;28;20032;-90
2023/10/02 12:14:14;;;;;;;24.70;16.95;;;22.40;99.90;;;;;;5077302;28;20042;-91
2023/10/02 12:16:40;;;;;;;26.13;16.65;;;22.40;99.90;;;;;;5094293;28;20088;-91
2023/10/02 12:19:08;;;;;;;25.00;16.63;;;22.50;99.90;;;;;;5078135;28;20494;-91
2023/10/02 12:21:34;;;;;;;23.95;16.27;;;22.50;99.90;;;;;;5093827;28;20039;-91
2023/10/02 12:24:00;;;;;;;22.10;15.43;;;22.50;99.90;;;;;;5093264;28;20493;-91
2023/10/02 12:26:28;;;;;;;22.75;15.88;;;22.70;99.90;;;;;;5077003;28;20042;-91
2023/10/02 12:28:54;;;;;;;25.60;16.50;;;22.90;99.90;;;;;;5095932;28;20451;-91
2023/10/02 12:31:20;;;;;;;23.52;15.65;;;23.00;99.90;;;;;;5095297;28;20534;-91
2023/10/02 12:33:47;;;;;;;24.65;16.52;;;23.10;99.90;;;;;;5076818;28;20028;-91
2023/10/02 12:36:15;;;;;;;22.95;15.07;;;23.30;99.90;;;;;;5078591;28;20043;-90
2023/10/02 12:38:42;;;;;;;25.25;16.27;;;23.30;99.90;;;;;;5093220;28;20046;-91
2023/10/02 12:41:12;;;;;;;23.77;16.35;;;23.40;99.90;;;;;;5095804;28;20054;-92
2023/10/02 12:43:37;;;;;;;23.90;16.55;;;23.60;99.90;;;;;;5079231;28;20035;-91
2023/10/02 12:46:04;;;;;;;26.65;16.65;;;23.60;99.90;;;;;;5095303;28;20096;-91
2023/10/02 12:48:33;;;;;;;22.23;15.15;;;23.70;99.90;;;;;;5080187;28;20039;-91
2023/10/02 12:51:06;;;;;;;24.30;15.93;;;23.80;99.90;;;;;;5077487;28;20494;-91
2023/10/02 12:53:35;;;;;;;24.10;15.15;;;23.90;99.90;;;;;;5077074;28;20126;-91
2023/10/02 12:56:01;;;;;;;23.80;14.77;;;24.10;99.90;;;;;;5077126;28;20403;-91
2023/10/02 12:58:27;;;;;;;24.95;15.55;;;24.10;99.90;;;;;;5076861;28;20429;-91
2023/10/02 13:00:54;;;;;;;22.15;15.10;;;24.10;99.90;;;;;;5085161;28;20047;-91
2023/10/02 13:03:20;;;;;;;20.50;13.95;;;24.00;99.90;;;;;;5093759;28;20051;-91
2023/10/02 13:05:45;;;;;;;22.10;15.15;;;24.10;99.90;;;;;;5093544;28;20414;-91
2023/10/02 13:08:11;;;;;;;22.20;14.32;;;24.10;99.90;;;;;;5093407;28;20039;-91
2023/10/02 13:10:37;;;;;;;18.42;12.68;;;23.90;99.90;;;;;;5076490;28;20039;-91
2023/10/02 13:13:04;;;;;;;19.50;13.38;;;23.80;99.90;;;;;;5093429;28;20395;-91
2023/10/02 13:15:32;;;;;;;20.83;14.30;;;23.80;99.90;;;;;;5093574;28;20047;-91
2023/10/02 13:17:58;;;;;;;23.88;14.68;;;23.70;99.90;;;;;;5093269;28;20118;-91
2023/10/02 13:20:24;;;;;;;19.70;13.73;;;23.70;99.90;;;;;;5083478;28;20611;-91
2023/10/02 13:22:53;;;;;;;22.27;15.13;;;23.60;99.90;;;;;;5084889;28;20120;-91
2023/10/02 13:25:21;;;;;;;23.10;15.40;;;23.60;99.90;;;;;;5093149;28;20043;-91
2023/10/02 13:27:48;;;;;;;24.15;14.50;;;23.50;99.90;;;;;;5101073;28;20055;-92
2023/10/02 13:30:19;;;;;;;24.95;15.15;;;23.60;99.90;;;;;;5095406;28;20039;-91
2023/10/02 13:32:45;;;;;;;21.67;13.88;;;23.70;99.90;;;;;;5077650;28;20071;-91
2023/10/02 13:35:10;;;;;;;22.13;14.57;;;23.90;99.90;;;;;;5076211;28;20498;-91
2023/10/02 13:37:38;;;;;;;22.35;15.00;;;24.20;99.90;;;;;;5076608;28;20040;-91
2023/10/02 13:40:18;;;;;;;21.10;14.45;;;24.20;99.90;;;;;;5103390;28;20487;-91
2023/10/02 13:42:49;;;;;;;22.63;14.80;;;24.10;99.90;;;;;;5079780;28;20028;-92
2023/10/02 13:45:17;;;;;;;21.73;14.10;;;24.00;99.90;;;;;;5080457;28;20035;-91
2023/10/02 13:47:43;;;;;;;19.38;13.82;;;23.90;99.90;;;;;;5103988;28;20042;-91
2023/10/02 13:50:09;;;;;;;22.10;13.55;;;23.80;99.90;;;;;;5097010;28;20031;-91
2023/10/02 13:52:35;;;;;;;21.95;14.40;;;23.80;99.90;;;;;;5097591;28;20061;-91
2023/10/02 13:55:05;;;;;;;23.92;15.48;;;23.80;99.90;;;;;;5081152;28;20045;-91